sensor_id;sensor_type;location;lat;lon;timestamp;P1;durP1;ratioP1;P2;durP2;ratioP2
1479;SDS011;732;51.698;4.886;2023-08-12T00:00:04;16.43;;;10.57;;
1479;SDS011;732;51.698;4.886;2023-08-12T00:02:41;16.10;;;9.10;;
1479;SDS011;732;51.698;4.886;2023-08-12T00:05:11;18.90;;;9.97;;
1479;SDS011;732;51.698;4.886;2023-08-12T00:07:40;16.43;;;10.40;;
1479;SDS011;732;51.698;4.886;2023-08-12T00:10:11;24.43;;;11.30;;
1479;SDS011;732;51.698;4.886;2023-08-12T00:12:40;19.90;;;11.50;;
1479;SDS011;732;51.698;4.886;2023-08-12T00:15:09;17.57;;;10.43;;
1479;SDS011;732;51.698;4.886;2023-08-12T00:17:37;17.10;;;11.90;;
1479;SDS011;732;51.698;4.886;2023-08-12T00:20:10;21.93;;;10.83;;
1479;SDS011;732;51.698;4.886;2023-08-12T00:22:39;17.87;;;11.10;;
1479;SDS011;732;51.698;4.886;2023-08-12T00:25:08;23.33;;;11.53;;
1479;SDS011;732;51.698;4.886;2023-08-12T00:27:36;17.77;;;10.33;;
1479;SDS011;732;51.698;4.886;2023-08-12T00:30:05;21.10;;;11.03;;
1479;SDS011;732;51.698;4.886;2023-08-12T00:32:35;19.67;;;11.10;;
1479;SDS011;732;51.698;4.886;2023-08-12T00:35:04;18.00;;;10.73;;
1479;SDS011;732;51.698;4.886;2023-08-12T00:37:34;24.27;;;12.83;;
1479;SDS011;732;51.698;4.886;2023-08-12T00:40:03;17.60;;;11.33;;
1479;SDS011;732;51.698;4.886;2023-08-12T00:42:33;23.70;;;13.90;;
1479;SDS011;732;51.698;4.886;2023-08-12T00:45:01;27.50;;;13.47;;
1479;SDS011;732;51.698;4.886;2023-08-12T00:47:30;21.17;;;13.47;;
1479;SDS011;732;51.698;4.886;2023-08-12T00:49:59;21.50;;;13.30;;
1479;SDS011;732;51.698;4.886;2023-08-12T00:52:29;19.60;;;13.93;;
1479;SDS011;732;51.698;4.886;2023-08-12T00:54:59;17.10;;;12.50;;
1479;SDS011;732;51.698;4.886;2023-08-12T00:57:27;19.23;;;13.10;;
1479;SDS011;732;51.698;4.886;2023-08-12T00:59:56;20.20;;;14.47;;
1479;SDS011;732;51.698;4.886;2023-08-12T01:02:24;23.27;;;15.50;;
1479;SDS011;732;51.698;4.886;2023-08-12T01:04:53;25.03;;;16.03;;
1479;SDS011;732;51.698;4.886;2023-08-12T01:07:21;26.00;;;15.60;;
1479;SDS011;732;51.698;4.886;2023-08-12T01:09:50;25.43;;;16.23;;
1479;SDS011;732;51.698;4.886;2023-08-12T01:12:20;24.03;;;17.90;;
1479;SDS011;732;51.698;4.886;2023-08-12T01:14:56;29.97;;;17.00;;
1479;SDS011;732;51.698;4.886;2023-08-12T01:17:38;25.20;;;16.50;;
1479;SDS011;732;51.698;4.886;2023-08-12T01:20:11;23.17;;;16.77;;
1479;SDS011;732;51.698;4.886;2023-08-12T01:22:41;27.37;;;18.03;;
1479;SDS011;732;51.698;4.886;2023-08-12T01:25:15;27.63;;;17.47;;
1479;SDS011;732;51.698;4.886;2023-08-12T01:27:43;25.27;;;16.80;;
1479;SDS011;732;51.698;4.886;2023-08-12T01:30:13;32.83;;;18.80;;
1479;SDS011;732;51.698;4.886;2023-08-12T01:32:45;25.87;;;16.87;;
1479;SDS011;732;51.698;4.886;2023-08-12T01:35:23;25.70;;;17.50;;
1479;SDS011;732;51.698;4.886;2023-08-12T01:37:57;27.50;;;18.10;;
1479;SDS011;732;51.698;4.886;2023-08-12T01:40:30;25.70;;;17.97;;
1479;SDS011;732;51.698;4.886;2023-08-12T01:42:59;25.63;;;17.90;;
1479;SDS011;732;51.698;4.886;2023-08-12T01:45:30;26.53;;;17.90;;
1479;SDS011;732;51.698;4.886;2023-08-12T01:48:00;29.43;;;18.33;;
1479;SDS011;732;51.698;4.886;2023-08-12T01:50:29;28.00;;;17.60;;
1479;SDS011;732;51.698;4.886;2023-08-12T01:52:57;31.17;;;19.60;;
1479;SDS011;732;51.698;4.886;2023-08-12T01:55:28;28.70;;;20.50;;
1479;SDS011;732;51.698;4.886;2023-08-12T01:57:58;30.67;;;20.67;;
1479;SDS011;732;51.698;4.886;2023-08-12T02:00:26;29.07;;;20.53;;
1479;SDS011;732;51.698;4.886;2023-08-12T02:02:55;27.80;;;18.57;;
1479;SDS011;732;51.698;4.886;2023-08-12T02:05:24;29.10;;;18.67;;
1479;SDS011;732;51.698;4.886;2023-08-12T02:07:52;26.53;;;19.40;;
1479;SDS011;732;51.698;4.886;2023-08-12T02:10:21;28.43;;;19.47;;
1479;SDS011;732;51.698;4.886;2023-08-12T02:12:50;28.90;;;19.00;;
1479;SDS011;732;51.698;4.886;2023-08-12T02:15:19;25.27;;;19.07;;
1479;SDS011;732;51.698;4.886;2023-08-12T02:17:47;27.63;;;19.27;;
1479;SDS011;732;51.698;4.886;2023-08-12T02:20:16;24.20;;;19.03;;
1479;SDS011;732;51.698;4.886;2023-08-12T02:22:45;32.27;;;20.00;;
1479;SDS011;732;51.698;4.886;2023-08-12T02:25:14;26.03;;;18.60;;
1479;SDS011;732;51.698;4.886;2023-08-12T02:27:43;29.93;;;17.60;;
1479;SDS011;732;51.698;4.886;2023-08-12T02:30:13;23.53;;;17.90;;
1479;SDS011;732;51.698;4.886;2023-08-12T02:32:41;26.30;;;17.80;;
1479;SDS011;732;51.698;4.886;2023-08-12T02:35:10;24.10;;;17.60;;
1479;SDS011;732;51.698;4.886;2023-08-12T02:37:39;26.67;;;17.93;;
1479;SDS011;732;51.698;4.886;2023-08-12T02:40:08;27.00;;;17.83;;
1479;SDS011;732;51.698;4.886;2023-08-12T02:42:37;23.27;;;17.00;;
1479;SDS011;732;51.698;4.886;2023-08-12T02:45:05;32.33;;;18.50;;
1479;SDS011;732;51.698;4.886;2023-08-12T02:47:35;24.53;;;17.77;;
1479;SDS011;732;51.698;4.886;2023-08-12T02:50:04;24.40;;;17.60;;
1479;SDS011;732;51.698;4.886;2023-08-12T02:52:34;26.80;;;17.67;;
1479;SDS011;732;51.698;4.886;2023-08-12T02:55:03;23.60;;;16.97;;
1479;SDS011;732;51.698;4.886;2023-08-12T02:57:32;23.90;;;17.53;;
1479;SDS011;732;51.698;4.886;2023-08-12T03:00:00;26.10;;;17.80;;
1479;SDS011;732;51.698;4.886;2023-08-12T03:02:30;27.97;;;19.07;;
1479;SDS011;732;51.698;4.886;2023-08-12T03:05:00;29.90;;;19.73;;
1479;SDS011;732;51.698;4.886;2023-08-12T03:07:29;32.60;;;23.10;;
1479;SDS011;732;51.698;4.886;2023-08-12T03:09:58;42.03;;;24.37;;
1479;SDS011;732;51.698;4.886;2023-08-12T03:12:26;32.77;;;23.50;;
1479;SDS011;732;51.698;4.886;2023-08-12T03:14:54;27.20;;;20.80;;
1479;SDS011;732;51.698;4.886;2023-08-12T03:17:23;25.50;;;18.63;;
1479;SDS011;732;51.698;4.886;2023-08-12T03:19:51;36.10;;;22.63;;
1479;SDS011;732;51.698;4.886;2023-08-12T03:22:22;35.90;;;21.20;;
1479;SDS011;732;51.698;4.886;2023-08-12T03:24:51;35.60;;;22.37;;
1479;SDS011;732;51.698;4.886;2023-08-12T03:27:19;31.80;;;21.00;;
1479;SDS011;732;51.698;4.886;2023-08-12T03:29:49;31.70;;;21.40;;
1479;SDS011;732;51.698;4.886;2023-08-12T03:32:17;37.47;;;22.70;;
1479;SDS011;732;51.698;4.886;2023-08-12T03:34:46;35.90;;;22.00;;
1479;SDS011;732;51.698;4.886;2023-08-12T03:37:15;28.90;;;19.50;;
1479;SDS011;732;51.698;4.886;2023-08-12T03:39:45;32.30;;;20.67;;
1479;SDS011;732;51.698;4.886;2023-08-12T03:42:14;37.03;;;23.53;;
1479;SDS011;732;51.698;4.886;2023-08-12T03:44:43;33.63;;;20.33;;
1479;SDS011;732;51.698;4.886;2023-08-12T03:47:12;32.80;;;20.47;;
1479;SDS011;732;51.698;4.886;2023-08-12T03:49:40;37.33;;;21.10;;
1479;SDS011;732;51.698;4.886;2023-08-12T03:52:09;31.20;;;22.20;;
1479;SDS011;732;51.698;4.886;2023-08-12T03:54:37;34.70;;;21.97;;
1479;SDS011;732;51.698;4.886;2023-08-12T03:57:07;28.30;;;20.03;;
1479;SDS011;732;51.698;4.886;2023-08-12T03:59:36;26.53;;;19.07;;
1479;SDS011;732;51.698;4.886;2023-08-12T04:02:05;33.53;;;20.40;;
1479;SDS011;732;51.698;4.886;2023-08-12T04:04:33;25.97;;;18.07;;
1479;SDS011;732;51.698;4.886;2023-08-12T04:07:02;26.03;;;17.73;;
1479;SDS011;732;51.698;4.886;2023-08-12T04:09:30;24.87;;;17.37;;
1479;SDS011;732;51.698;4.886;2023-08-12T04:11:58;29.57;;;18.43;;
1479;SDS011;732;51.698;4.886;2023-08-12T04:14:28;25.40;;;17.47;;
1479;SDS011;732;51.698;4.886;2023-08-12T04:16:57;29.00;;;16.90;;
1479;SDS011;732;51.698;4.886;2023-08-12T04:19:25;30.13;;;18.10;;
1479;SDS011;732;51.698;4.886;2023-08-12T04:21:54;27.13;;;16.30;;
1479;SDS011;732;51.698;4.886;2023-08-12T04:24:22;25.87;;;17.37;;
1479;SDS011;732;51.698;4.886;2023-08-12T04:26:51;22.70;;;16.03;;
1479;SDS011;732;51.698;4.886;2023-08-12T04:29:19;23.63;;;16.00;;
1479;SDS011;732;51.698;4.886;2023-08-12T04:31:49;26.60;;;17.37;;
1479;SDS011;732;51.698;4.886;2023-08-12T04:34:19;33.90;;;15.90;;
1479;SDS011;732;51.698;4.886;2023-08-12T04:36:49;26.40;;;18.47;;
1479;SDS011;732;51.698;4.886;2023-08-12T04:39:17;29.27;;;19.53;;
1479;SDS011;732;51.698;4.886;2023-08-12T04:41:46;28.97;;;19.00;;
1479;SDS011;732;51.698;4.886;2023-08-12T04:44:14;28.23;;;18.40;;
1479;SDS011;732;51.698;4.886;2023-08-12T04:46:42;26.47;;;18.27;;
1479;SDS011;732;51.698;4.886;2023-08-12T04:49:12;25.53;;;17.70;;
1479;SDS011;732;51.698;4.886;2023-08-12T04:51:41;40.90;;;21.33;;
1479;SDS011;732;51.698;4.886;2023-08-12T04:54:10;34.40;;;19.77;;
1479;SDS011;732;51.698;4.886;2023-08-12T04:56:41;27.33;;;18.07;;
1479;SDS011;732;51.698;4.886;2023-08-12T04:59:10;27.60;;;18.30;;
1479;SDS011;732;51.698;4.886;2023-08-12T05:01:38;25.60;;;16.90;;
1479;SDS011;732;51.698;4.886;2023-08-12T05:04:27;28.00;;;18.87;;
1479;SDS011;732;51.698;4.886;2023-08-12T05:06:56;33.57;;;19.57;;
1479;SDS011;732;51.698;4.886;2023-08-12T05:09:24;29.13;;;19.07;;
1479;SDS011;732;51.698;4.886;2023-08-12T05:11:53;28.80;;;17.40;;
1479;SDS011;732;51.698;4.886;2023-08-12T05:14:21;34.43;;;19.23;;
1479;SDS011;732;51.698;4.886;2023-08-12T05:16:50;26.93;;;16.90;;
1479;SDS011;732;51.698;4.886;2023-08-12T05:19:18;25.17;;;17.53;;
1479;SDS011;732;51.698;4.886;2023-08-12T05:21:48;27.53;;;18.50;;
1479;SDS011;732;51.698;4.886;2023-08-12T05:24:16;29.97;;;17.30;;
1479;SDS011;732;51.698;4.886;2023-08-12T05:26:45;27.17;;;17.50;;
1479;SDS011;732;51.698;4.886;2023-08-12T05:29:13;22.97;;;16.37;;
1479;SDS011;732;51.698;4.886;2023-08-12T05:31:42;28.00;;;17.60;;
1479;SDS011;732;51.698;4.886;2023-08-12T05:34:10;27.40;;;18.20;;
1479;SDS011;732;51.698;4.886;2023-08-12T05:36:39;22.90;;;16.53;;
1479;SDS011;732;51.698;4.886;2023-08-12T05:39:09;24.87;;;17.40;;
1479;SDS011;732;51.698;4.886;2023-08-12T05:41:37;32.30;;;20.83;;
1479;SDS011;732;51.698;4.886;2023-08-12T05:44:06;25.20;;;18.00;;
1479;SDS011;732;51.698;4.886;2023-08-12T05:46:34;31.40;;;18.20;;
1479;SDS011;732;51.698;4.886;2023-08-12T05:49:04;29.67;;;18.70;;
1479;SDS011;732;51.698;4.886;2023-08-12T05:51:32;30.30;;;18.33;;
1479;SDS011;732;51.698;4.886;2023-08-12T05:54:01;27.07;;;19.50;;
1479;SDS011;732;51.698;4.886;2023-08-12T05:56:33;25.37;;;19.20;;
1479;SDS011;732;51.698;4.886;2023-08-12T05:59:03;32.83;;;19.77;;
1479;SDS011;732;51.698;4.886;2023-08-12T06:01:31;25.20;;;19.13;;
1479;SDS011;732;51.698;4.886;2023-08-12T06:04:00;23.27;;;18.27;;
1479;SDS011;732;51.698;4.886;2023-08-12T06:06:28;27.00;;;18.30;;
1479;SDS011;732;51.698;4.886;2023-08-12T06:08:57;24.73;;;17.67;;
1479;SDS011;732;51.698;4.886;2023-08-12T06:11:25;36.60;;;21.60;;
1479;SDS011;732;51.698;4.886;2023-08-12T06:13:55;26.77;;;18.23;;
1479;SDS011;732;51.698;4.886;2023-08-12T06:16:23;25.10;;;14.97;;
1479;SDS011;732;51.698;4.886;2023-08-12T06:18:51;15.20;;;11.90;;
1479;SDS011;732;51.698;4.886;2023-08-12T06:21:20;13.40;;;9.90;;
1479;SDS011;732;51.698;4.886;2023-08-12T06:23:48;12.83;;;8.30;;
1479;SDS011;732;51.698;4.886;2023-08-12T06:26:16;14.40;;;8.70;;
1479;SDS011;732;51.698;4.886;2023-08-12T06:28:44;14.50;;;9.17;;
1479;SDS011;732;51.698;4.886;2023-08-12T06:31:14;11.47;;;8.40;;
1479;SDS011;732;51.698;4.886;2023-08-12T06:33:42;12.03;;;7.40;;
1479;SDS011;732;51.698;4.886;2023-08-12T06:36:11;15.07;;;9.10;;
1479;SDS011;732;51.698;4.886;2023-08-12T06:38:39;14.50;;;9.13;;
1479;SDS011;732;51.698;4.886;2023-08-12T06:41:07;9.70;;;8.53;;
1479;SDS011;732;51.698;4.886;2023-08-12T06:43:36;13.17;;;9.53;;
1479;SDS011;732;51.698;4.886;2023-08-12T06:46:04;11.90;;;9.23;;
1479;SDS011;732;51.698;4.886;2023-08-12T06:48:34;14.30;;;8.97;;
1479;SDS011;732;51.698;4.886;2023-08-12T06:51:02;15.43;;;10.67;;
1479;SDS011;732;51.698;4.886;2023-08-12T06:53:36;15.43;;;9.67;;
1479;SDS011;732;51.698;4.886;2023-08-12T06:56:06;13.20;;;8.73;;
1479;SDS011;732;51.698;4.886;2023-08-12T06:58:34;11.33;;;7.80;;
1479;SDS011;732;51.698;4.886;2023-08-12T07:01:02;8.93;;;7.30;;
1479;SDS011;732;51.698;4.886;2023-08-12T07:03:31;10.73;;;7.43;;
1479;SDS011;732;51.698;4.886;2023-08-12T07:06:01;11.37;;;8.50;;
1479;SDS011;732;51.698;4.886;2023-08-12T07:08:29;11.77;;;7.77;;
1479;SDS011;732;51.698;4.886;2023-08-12T07:10:58;11.20;;;7.40;;
1479;SDS011;732;51.698;4.886;2023-08-12T07:13:26;8.93;;;7.00;;
1479;SDS011;732;51.698;4.886;2023-08-12T07:15:55;9.90;;;7.40;;
1479;SDS011;732;51.698;4.886;2023-08-12T07:18:23;8.93;;;7.27;;
1479;SDS011;732;51.698;4.886;2023-08-12T07:20:52;7.73;;;6.53;;
1479;SDS011;732;51.698;4.886;2023-08-12T07:23:21;7.10;;;6.37;;
1479;SDS011;732;51.698;4.886;2023-08-12T07:25:49;9.40;;;6.63;;
1479;SDS011;732;51.698;4.886;2023-08-12T07:28:18;8.73;;;6.90;;
1479;SDS011;732;51.698;4.886;2023-08-12T07:30:47;9.50;;;6.90;;
1479;SDS011;732;51.698;4.886;2023-08-12T07:33:16;8.90;;;7.30;;
1479;SDS011;732;51.698;4.886;2023-08-12T07:35:44;8.53;;;6.70;;
1479;SDS011;732;51.698;4.886;2023-08-12T07:38:13;6.90;;;5.90;;
1479;SDS011;732;51.698;4.886;2023-08-12T07:40:42;3.80;;;3.40;;
1479;SDS011;732;51.698;4.886;2023-08-12T07:43:10;5.30;;;4.10;;
1479;SDS011;732;51.698;4.886;2023-08-12T07:45:39;5.27;;;4.03;;
1479;SDS011;732;51.698;4.886;2023-08-12T07:48:07;6.00;;;4.80;;
1479;SDS011;732;51.698;4.886;2023-08-12T07:50:36;7.07;;;5.77;;
1479;SDS011;732;51.698;4.886;2023-08-12T07:53:04;7.00;;;5.80;;
1479;SDS011;732;51.698;4.886;2023-08-12T07:55:32;8.70;;;7.03;;
1479;SDS011;732;51.698;4.886;2023-08-12T07:58:03;8.00;;;7.20;;
1479;SDS011;732;51.698;4.886;2023-08-12T08:00:32;6.50;;;3.33;;
1479;SDS011;732;51.698;4.886;2023-08-12T08:03:01;3.50;;;2.47;;
1479;SDS011;732;51.698;4.886;2023-08-12T08:05:29;3.73;;;2.40;;
1479;SDS011;732;51.698;4.886;2023-08-12T08:07:58;6.30;;;2.60;;
1479;SDS011;732;51.698;4.886;2023-08-12T08:10:26;5.47;;;2.00;;
1479;SDS011;732;51.698;4.886;2023-08-12T08:12:55;4.83;;;2.13;;
1479;SDS011;732;51.698;4.886;2023-08-12T08:15:24;5.00;;;2.20;;
1479;SDS011;732;51.698;4.886;2023-08-12T08:17:53;3.70;;;2.00;;
1479;SDS011;732;51.698;4.886;2023-08-12T08:20:22;6.30;;;2.00;;
1479;SDS011;732;51.698;4.886;2023-08-12T08:22:50;6.57;;;1.83;;
1479;SDS011;732;51.698;4.886;2023-08-12T08:25:21;3.87;;;1.93;;
1479;SDS011;732;51.698;4.886;2023-08-12T08:27:52;7.33;;;2.23;;
1479;SDS011;732;51.698;4.886;2023-08-12T08:30:21;9.70;;;2.50;;
1479;SDS011;732;51.698;4.886;2023-08-12T08:32:52;2.87;;;1.73;;
1479;SDS011;732;51.698;4.886;2023-08-12T08:35:20;5.80;;;2.47;;
1479;SDS011;732;51.698;4.886;2023-08-12T08:37:49;6.40;;;2.37;;
1479;SDS011;732;51.698;4.886;2023-08-12T08:40:17;10.13;;;1.87;;
1479;SDS011;732;51.698;4.886;2023-08-12T08:42:47;4.27;;;2.00;;
1479;SDS011;732;51.698;4.886;2023-08-12T08:45:20;7.50;;;2.57;;
1479;SDS011;732;51.698;4.886;2023-08-12T08:47:51;9.23;;;2.70;;
1479;SDS011;732;51.698;4.886;2023-08-12T08:50:24;6.33;;;2.07;;
1479;SDS011;732;51.698;4.886;2023-08-12T08:52:53;9.13;;;2.33;;
1479;SDS011;732;51.698;4.886;2023-08-12T08:55:23;6.60;;;2.37;;
1479;SDS011;732;51.698;4.886;2023-08-12T08:57:52;9.90;;;2.53;;
1479;SDS011;732;51.698;4.886;2023-08-12T09:00:27;12.07;;;2.97;;
1479;SDS011;732;51.698;4.886;2023-08-12T09:02:57;9.63;;;2.70;;
1479;SDS011;732;51.698;4.886;2023-08-12T09:05:26;6.13;;;2.13;;
1479;SDS011;732;51.698;4.886;2023-08-12T09:07:56;8.60;;;3.00;;
1479;SDS011;732;51.698;4.886;2023-08-12T09:10:27;12.27;;;2.87;;
1479;SDS011;732;51.698;4.886;2023-08-12T09:12:57;9.93;;;2.20;;
1479;SDS011;732;51.698;4.886;2023-08-12T09:15:25;6.47;;;2.40;;
1479;SDS011;732;51.698;4.886;2023-08-12T09:17:54;6.70;;;2.63;;
1479;SDS011;732;51.698;4.886;2023-08-12T09:20:24;5.63;;;2.17;;
1479;SDS011;732;51.698;4.886;2023-08-12T09:22:57;7.00;;;1.87;;
1479;SDS011;732;51.698;4.886;2023-08-12T09:25:27;8.27;;;2.40;;
1479;SDS011;732;51.698;4.886;2023-08-12T09:27:58;10.13;;;2.37;;
1479;SDS011;732;51.698;4.886;2023-08-12T09:30:28;11.53;;;3.27;;
1479;SDS011;732;51.698;4.886;2023-08-12T09:32:58;8.50;;;2.57;;
1479;SDS011;732;51.698;4.886;2023-08-12T09:35:33;6.50;;;2.87;;
1479;SDS011;732;51.698;4.886;2023-08-12T09:38:03;9.97;;;2.70;;
1479;SDS011;732;51.698;4.886;2023-08-12T09:40:34;8.57;;;2.20;;
1479;SDS011;732;51.698;4.886;2023-08-12T09:43:04;8.63;;;2.80;;
1479;SDS011;732;51.698;4.886;2023-08-12T09:45:34;5.80;;;2.23;;
1479;SDS011;732;51.698;4.886;2023-08-12T09:48:03;6.23;;;1.80;;
1479;SDS011;732;51.698;4.886;2023-08-12T09:50:36;7.43;;;2.03;;
1479;SDS011;732;51.698;4.886;2023-08-12T09:53:04;6.30;;;2.67;;
1479;SDS011;732;51.698;4.886;2023-08-12T09:55:33;5.43;;;1.57;;
1479;SDS011;732;51.698;4.886;2023-08-12T09:58:04;7.20;;;1.90;;
1479;SDS011;732;51.698;4.886;2023-08-12T10:00:37;4.23;;;2.23;;
1479;SDS011;732;51.698;4.886;2023-08-12T10:03:07;6.93;;;2.33;;
1479;SDS011;732;51.698;4.886;2023-08-12T10:05:42;6.47;;;2.23;;
1479;SDS011;732;51.698;4.886;2023-08-12T10:08:11;6.07;;;1.83;;
1479;SDS011;732;51.698;4.886;2023-08-12T10:10:42;8.47;;;2.07;;
1479;SDS011;732;51.698;4.886;2023-08-12T10:13:28;12.87;;;2.50;;
1479;SDS011;732;51.698;4.886;2023-08-12T10:15:57;11.73;;;3.73;;
1479;SDS011;732;51.698;4.886;2023-08-12T10:18:26;8.27;;;2.70;;
1479;SDS011;732;51.698;4.886;2023-08-12T10:20:58;5.73;;;2.77;;
1479;SDS011;732;51.698;4.886;2023-08-12T10:23:28;6.40;;;2.50;;
1479;SDS011;732;51.698;4.886;2023-08-12T10:25:57;10.23;;;2.93;;
1479;SDS011;732;51.698;4.886;2023-08-12T10:28:27;5.00;;;2.30;;
1479;SDS011;732;51.698;4.886;2023-08-12T10:30:58;5.50;;;2.73;;
1479;SDS011;732;51.698;4.886;2023-08-12T10:33:26;7.63;;;2.70;;
1479;SDS011;732;51.698;4.886;2023-08-12T10:35:55;10.43;;;2.50;;
1479;SDS011;732;51.698;4.886;2023-08-12T10:38:25;5.60;;;2.30;;
1479;SDS011;732;51.698;4.886;2023-08-12T10:40:55;7.37;;;2.20;;
1479;SDS011;732;51.698;4.886;2023-08-12T10:44:00;14.03;;;2.70;;
1479;SDS011;732;51.698;4.886;2023-08-12T10:46:33;4.57;;;2.00;;
1479;SDS011;732;51.698;4.886;2023-08-12T10:49:03;9.50;;;2.57;;
1479;SDS011;732;51.698;4.886;2023-08-12T10:51:43;5.83;;;2.23;;
1479;SDS011;732;51.698;4.886;2023-08-12T10:54:14;7.80;;;2.70;;
1479;SDS011;732;51.698;4.886;2023-08-12T10:59:54;10.33;;;3.20;;
1479;SDS011;732;51.698;4.886;2023-08-12T11:02:28;6.67;;;2.43;;
1479;SDS011;732;51.698;4.886;2023-08-12T11:05:00;7.20;;;2.40;;
1479;SDS011;732;51.698;4.886;2023-08-12T11:07:39;9.80;;;2.93;;
1479;SDS011;732;51.698;4.886;2023-08-12T11:10:10;8.27;;;2.57;;
1479;SDS011;732;51.698;4.886;2023-08-12T11:12:41;6.90;;;2.43;;
1479;SDS011;732;51.698;4.886;2023-08-12T11:15:16;8.80;;;2.80;;
1479;SDS011;732;51.698;4.886;2023-08-12T11:17:47;6.60;;;2.30;;
1479;SDS011;732;51.698;4.886;2023-08-12T11:20:16;9.23;;;2.80;;
1479;SDS011;732;51.698;4.886;2023-08-12T11:22:46;6.20;;;2.60;;
1479;SDS011;732;51.698;4.886;2023-08-12T11:25:15;12.20;;;3.23;;
1479;SDS011;732;51.698;4.886;2023-08-12T11:27:46;12.30;;;3.13;;
1479;SDS011;732;51.698;4.886;2023-08-12T11:30:16;6.50;;;2.77;;
1479;SDS011;732;51.698;4.886;2023-08-12T11:32:47;9.33;;;2.67;;
1479;SDS011;732;51.698;4.886;2023-08-12T11:35:17;10.77;;;3.13;;
1479;SDS011;732;51.698;4.886;2023-08-12T11:37:49;9.10;;;2.50;;
1479;SDS011;732;51.698;4.886;2023-08-12T11:40:19;10.47;;;2.83;;
1479;SDS011;732;51.698;4.886;2023-08-12T11:42:49;9.03;;;2.50;;
1479;SDS011;732;51.698;4.886;2023-08-12T11:45:19;9.70;;;2.90;;
1479;SDS011;732;51.698;4.886;2023-08-12T11:47:50;9.07;;;2.50;;
1479;SDS011;732;51.698;4.886;2023-08-12T11:50:21;11.30;;;3.00;;
1479;SDS011;732;51.698;4.886;2023-08-12T11:52:53;11.40;;;2.93;;
1479;SDS011;732;51.698;4.886;2023-08-12T11:55:23;7.70;;;2.33;;
1479;SDS011;732;51.698;4.886;2023-08-12T11:57:52;10.10;;;2.70;;
1479;SDS011;732;51.698;4.886;2023-08-12T12:00:21;6.53;;;2.57;;
1479;SDS011;732;51.698;4.886;2023-08-12T12:02:53;10.23;;;3.30;;
1479;SDS011;732;51.698;4.886;2023-08-12T12:05:25;6.20;;;2.53;;
1479;SDS011;732;51.698;4.886;2023-08-12T12:07:58;8.20;;;2.70;;
1479;SDS011;732;51.698;4.886;2023-08-12T12:10:28;10.37;;;2.67;;
1479;SDS011;732;51.698;4.886;2023-08-12T12:13:01;8.37;;;2.83;;
1479;SDS011;732;51.698;4.886;2023-08-12T12:15:31;8.07;;;3.57;;
1479;SDS011;732;51.698;4.886;2023-08-12T12:18:08;8.23;;;2.50;;
1479;SDS011;732;51.698;4.886;2023-08-12T12:20:42;11.63;;;2.90;;
1479;SDS011;732;51.698;4.886;2023-08-12T12:23:23;10.43;;;3.10;;
1479;SDS011;732;51.698;4.886;2023-08-12T12:25:59;9.40;;;2.90;;
1479;SDS011;732;51.698;4.886;2023-08-12T12:28:28;10.23;;;3.10;;
1479;SDS011;732;51.698;4.886;2023-08-12T12:30:58;7.67;;;2.73;;
1479;SDS011;732;51.698;4.886;2023-08-12T12:33:26;8.20;;;2.53;;
1479;SDS011;732;51.698;4.886;2023-08-12T12:35:55;11.47;;;2.93;;
1479;SDS011;732;51.698;4.886;2023-08-12T12:38:29;13.43;;;3.13;;
1479;SDS011;732;51.698;4.886;2023-08-12T12:40:57;6.67;;;2.67;;
1479;SDS011;732;51.698;4.886;2023-08-12T12:43:25;8.63;;;2.27;;
1479;SDS011;732;51.698;4.886;2023-08-12T12:45:54;5.60;;;2.70;;
1479;SDS011;732;51.698;4.886;2023-08-12T12:48:22;11.60;;;2.93;;
1479;SDS011;732;51.698;4.886;2023-08-12T12:50:50;13.47;;;3.90;;
1479;SDS011;732;51.698;4.886;2023-08-12T12:53:19;7.97;;;2.90;;
1479;SDS011;732;51.698;4.886;2023-08-12T12:55:49;10.53;;;3.20;;
1479;SDS011;732;51.698;4.886;2023-08-12T12:58:17;9.40;;;2.70;;
1479;SDS011;732;51.698;4.886;2023-08-12T13:00:45;9.83;;;2.90;;
1479;SDS011;732;51.698;4.886;2023-08-12T13:03:14;9.17;;;3.43;;
1479;SDS011;732;51.698;4.886;2023-08-12T13:05:42;14.17;;;3.40;;
1479;SDS011;732;51.698;4.886;2023-08-12T13:08:11;13.00;;;3.10;;
1479;SDS011;732;51.698;4.886;2023-08-12T13:10:39;8.90;;;2.77;;
1479;SDS011;732;51.698;4.886;2023-08-12T13:13:09;5.93;;;2.60;;
1479;SDS011;732;51.698;4.886;2023-08-12T13:15:37;6.97;;;2.20;;
1479;SDS011;732;51.698;4.886;2023-08-12T13:18:06;8.03;;;2.10;;
1479;SDS011;732;51.698;4.886;2023-08-12T13:20:34;6.77;;;2.27;;
1479;SDS011;732;51.698;4.886;2023-08-12T13:23:03;5.53;;;1.80;;
1479;SDS011;732;51.698;4.886;2023-08-12T13:25:33;11.63;;;2.90;;
1479;SDS011;732;51.698;4.886;2023-08-12T13:28:02;5.90;;;2.47;;
1479;SDS011;732;51.698;4.886;2023-08-12T13:30:32;12.07;;;2.93;;
1479;SDS011;732;51.698;4.886;2023-08-12T13:33:02;7.77;;;2.57;;
1479;SDS011;732;51.698;4.886;2023-08-12T13:35:31;9.53;;;3.10;;
1479;SDS011;732;51.698;4.886;2023-08-12T13:37:59;9.50;;;2.40;;
1479;SDS011;732;51.698;4.886;2023-08-12T13:40:28;10.00;;;4.50;;
1479;SDS011;732;51.698;4.886;2023-08-12T13:42:57;6.00;;;2.50;;
1479;SDS011;732;51.698;4.886;2023-08-12T13:45:26;7.67;;;2.97;;
1479;SDS011;732;51.698;4.886;2023-08-12T13:47:56;6.67;;;3.07;;
1479;SDS011;732;51.698;4.886;2023-08-12T13:50:24;10.17;;;3.80;;
1479;SDS011;732;51.698;4.886;2023-08-12T13:52:53;10.10;;;3.33;;
1479;SDS011;732;51.698;4.886;2023-08-12T13:55:21;10.57;;;5.00;;
1479;SDS011;732;51.698;4.886;2023-08-12T13:57:50;9.73;;;2.97;;
1479;SDS011;732;51.698;4.886;2023-08-12T14:00:19;12.60;;;4.03;;
1479;SDS011;732;51.698;4.886;2023-08-12T14:02:47;10.70;;;4.17;;
1479;SDS011;732;51.698;4.886;2023-08-12T14:05:17;10.80;;;3.50;;
1479;SDS011;732;51.698;4.886;2023-08-12T14:07:46;8.70;;;3.33;;
1479;SDS011;732;51.698;4.886;2023-08-12T14:10:14;7.70;;;3.63;;
1479;SDS011;732;51.698;4.886;2023-08-12T14:12:43;7.27;;;3.10;;
1479;SDS011;732;51.698;4.886;2023-08-12T14:15:11;10.57;;;3.40;;
1479;SDS011;732;51.698;4.886;2023-08-12T14:17:39;11.63;;;4.30;;
1479;SDS011;732;51.698;4.886;2023-08-12T14:20:10;10.30;;;3.47;;
1479;SDS011;732;51.698;4.886;2023-08-12T14:22:42;9.93;;;3.40;;
1479;SDS011;732;51.698;4.886;2023-08-12T14:25:11;9.80;;;3.90;;
1479;SDS011;732;51.698;4.886;2023-08-12T14:27:40;11.03;;;3.70;;
1479;SDS011;732;51.698;4.886;2023-08-12T14:30:09;11.50;;;3.87;;
1479;SDS011;732;51.698;4.886;2023-08-12T14:32:39;15.23;;;4.13;;
1479;SDS011;732;51.698;4.886;2023-08-12T14:35:07;12.97;;;5.00;;
1479;SDS011;732;51.698;4.886;2023-08-12T14:37:36;9.47;;;4.30;;
1479;SDS011;732;51.698;4.886;2023-08-12T14:40:06;7.20;;;3.47;;
1479;SDS011;732;51.698;4.886;2023-08-12T14:42:36;14.20;;;4.73;;
1479;SDS011;732;51.698;4.886;2023-08-12T14:45:05;11.37;;;3.60;;
1479;SDS011;732;51.698;4.886;2023-08-12T14:47:34;17.77;;;4.43;;
1479;SDS011;732;51.698;4.886;2023-08-12T14:50:03;9.80;;;4.37;;
1479;SDS011;732;51.698;4.886;2023-08-12T14:52:32;13.77;;;4.50;;
1479;SDS011;732;51.698;4.886;2023-08-12T14:55:00;10.17;;;4.13;;
1479;SDS011;732;51.698;4.886;2023-08-12T14:57:31;13.33;;;4.50;;
1479;SDS011;732;51.698;4.886;2023-08-12T14:59:59;10.20;;;4.60;;
1479;SDS011;732;51.698;4.886;2023-08-12T15:02:27;13.37;;;3.97;;
1479;SDS011;732;51.698;4.886;2023-08-12T15:04:59;17.43;;;4.60;;
1479;SDS011;732;51.698;4.886;2023-08-12T15:07:28;11.43;;;3.83;;
1479;SDS011;732;51.698;4.886;2023-08-12T15:09:56;12.30;;;4.03;;
1479;SDS011;732;51.698;4.886;2023-08-12T15:12:25;12.60;;;4.00;;
1479;SDS011;732;51.698;4.886;2023-08-12T15:14:55;14.20;;;4.53;;
1479;SDS011;732;51.698;4.886;2023-08-12T15:17:24;13.80;;;4.13;;
1479;SDS011;732;51.698;4.886;2023-08-12T15:19:53;11.20;;;4.30;;
1479;SDS011;732;51.698;4.886;2023-08-12T15:22:21;15.17;;;4.10;;
1479;SDS011;732;51.698;4.886;2023-08-12T15:24:50;12.33;;;4.90;;
1479;SDS011;732;51.698;4.886;2023-08-12T15:27:19;14.23;;;4.87;;
1479;SDS011;732;51.698;4.886;2023-08-12T15:29:48;14.57;;;4.13;;
1479;SDS011;732;51.698;4.886;2023-08-12T15:32:17;14.63;;;4.73;;